Kosseir, Egypt

00:25 EET 27. Září 2016 (GMT +0200)
Marsa Alam International | | Change Station

Výška 253 ft 25.56 °N, 34.58 °E | Updated 25 minutes ago

Clear
Jasno
81 °F
Pocit jako 82 °F
S
9
Vítr proměnlivý Vítr od SZ

Dnes
Vysoké -- | Nízké -- °F
--% Možnost srážek
Včera
Vysoké -- | Nízké -- °F
Precip. -- inčů
Tlak 29.83 inčů
Viditelnost -9999.0 mílí
Zataženo
Tepelný index 82 °F
Rosný bod 61 °F
Vlhkost 51%
Dešťové srážky 0.00 inčů
Sněhová pokrývka Není k dispozici
5:34 AM 5:34 PM
Ubývající srpek, 16% visible
METAR HEMA 262200Z 31008KT CAVOK 27/16 Q1010 NOSIG
Tlak 29.83 inčů
Viditelnost -9999.0 mílí
Zataženo
Tepelný index 82 °F
Rosný bod 61 °F
Vlhkost 51%
Dešťové srážky 0.00 inčů
Sněhová pokrývka Není k dispozici
5:34 AM 5:34 PM
Ubývající srpek, 16% visible
METAR HEMA 262200Z 31008KT CAVOK 27/16 Q1010 NOSIG

10-Day Weather Forecast

No radar image for this location.
×

Almanac

Astronomie

Sep. 27, 2016 Východ Západ
Skutečný čas
Občanský soumrak
Námořní soumrak
Astronomický soumrak
Měsíc
Délka denního světla
Délka dne
Tomorrow will be .
, % of the Moon is Illuminated

Dnešní extrémy

Nejvyšší hodnoty ve státě Nejnižší hodnoty ve státě

Community

WunderPhotos

Upload Photos

1,941,979 snímků staženo!

WunderBlog® & News

Nearby

Kvalita ovzduší

  Kvalita ovzduší Index kvality ovzduší Polutant
Not available.

Výška sněhu

Station Hloubka Nadmořská výška

Seizmická činnost

Město Distance Mag. Čas & datum
Minimální zobrazený rozsah je 2.5.

Pobřežní teplota vody

Lokalita Teplota

Stations

Poblíž povětrnostní stanice

Lokace stanice Tepl. Ochlazování větrem Rosný bod Vlhkost Vítr Precip. Výška Čas hlášení Typ